createdAt,value
2019-01-11T00:00:27.592Z,102037.56
2019-01-11T00:02:29.022Z,102039.34
2019-01-11T00:04:30.409Z,102037.24
2019-01-11T00:06:31.792Z,102034.17
2019-01-11T00:08:33.220Z,102034.38
2019-01-11T00:10:34.603Z,102032.39
2019-01-11T00:12:35.975Z,102027.36
2019-01-11T00:14:37.409Z,102026.56
2019-01-11T00:16:38.777Z,102019.15
2019-01-11T00:18:40.136Z,102027.00
2019-01-11T00:20:41.680Z,102020.96
2019-01-11T00:22:43.075Z,102018.61
2019-01-11T00:24:44.460Z,102017.19
2019-01-11T00:26:45.967Z,102012.02
2019-01-11T00:28:47.561Z,102013.14
2019-01-11T00:30:48.952Z,102010.96
2019-01-11T00:32:50.374Z,102012.53
2019-01-11T00:34:51.757Z,102013.64
2019-01-11T00:36:53.146Z,102012.27
2019-01-11T00:38:54.596Z,102008.89
2019-01-11T00:40:55.989Z,102004.96
2019-01-11T00:42:57.473Z,102005.94
2019-01-11T00:44:58.883Z,102001.66
2019-01-11T00:47:00.497Z,102004.00
2019-01-11T00:49:01.887Z,102000.74
2019-01-11T00:51:03.390Z,102001.12
2019-01-11T00:53:04.960Z,102004.08
2019-01-11T00:55:07.419Z,102000.77
2019-01-11T00:57:08.804Z,102006.03
2019-01-11T00:59:10.236Z,102008.02
2019-01-11T01:01:12.130Z,102001.48
2019-01-11T01:03:13.508Z,102000.44
2019-01-11T01:05:15.078Z,102000.16
2019-01-11T01:07:17.152Z,101992.23
2019-01-11T01:09:18.741Z,101993.81
2019-01-11T01:11:20.202Z,101994.34
2019-01-11T01:13:21.620Z,101991.89
2019-01-11T01:15:23.011Z,101987.06
2019-01-11T01:17:24.407Z,101981.47
2019-01-11T01:19:25.812Z,101982.15
2019-01-11T01:21:27.174Z,101970.69
2019-01-11T01:23:28.546Z,101983.19
2019-01-11T01:25:31.006Z,101981.05
2019-01-11T01:27:32.369Z,101981.94
2019-01-11T01:29:33.844Z,101984.47
2019-01-11T01:31:35.474Z,101975.16
2019-01-11T01:33:36.901Z,101974.29
2019-01-11T01:35:38.325Z,101976.30
2019-01-11T01:37:39.776Z,101979.33
2019-01-11T01:39:41.132Z,101973.98
2019-01-11T01:41:42.503Z,101974.86
2019-01-11T01:43:43.959Z,101980.88
2019-01-11T01:45:45.426Z,101975.65
2019-01-11T01:47:46.963Z,101973.50
2019-01-11T01:49:48.401Z,101978.50
2019-01-11T01:51:49.767Z,101969.14
2019-01-11T01:53:51.184Z,101972.53
2019-01-11T01:55:52.578Z,101976.56
2019-01-11T01:57:54.219Z,101972.75
2019-01-11T01:59:55.920Z,101969.56
2019-01-11T02:01:57.318Z,101971.03
2019-01-11T02:03:58.683Z,101973.42
2019-01-11T02:06:00.107Z,101971.61
2019-01-11T02:08:01.475Z,101967.69
2019-01-11T02:10:07.714Z,101965.94
2019-01-11T02:12:09.096Z,101962.52
2019-01-11T02:14:10.465Z,101960.42
2019-01-11T02:16:12.008Z,101959.73
2019-01-11T02:18:13.389Z,101955.73
2019-01-11T02:20:16.171Z,101954.89
2019-01-11T02:22:17.626Z,101949.63
2019-01-11T02:24:18.999Z,101940.88
2019-01-11T02:26:20.438Z,101941.09
2019-01-11T02:28:21.820Z,101939.92
2019-01-11T02:30:23.200Z,101919.06
2019-01-11T02:32:24.849Z,101938.87
2019-01-11T02:34:26.229Z,101933.18
2019-01-11T02:36:27.715Z,101927.42
2019-01-11T02:38:29.410Z,101928.06
2019-01-11T02:40:30.785Z,101924.52
2019-01-11T02:42:32.160Z,101926.72
2019-01-11T02:44:33.588Z,101921.73
2019-01-11T02:46:34.972Z,101916.65
2019-01-11T02:48:36.463Z,101916.73
2019-01-11T02:50:37.861Z,101914.43
2019-01-11T02:52:39.253Z,101911.50
2019-01-11T02:54:40.706Z,101908.71
2019-01-11T02:56:42.059Z,101892.77
2019-01-11T02:58:43.422Z,101907.16
2019-01-11T03:00:44.872Z,101904.41
2019-01-11T03:02:46.645Z,101905.73
2019-01-11T03:04:48.040Z,101900.04
2019-01-11T03:06:49.726Z,101901.62
2019-01-11T03:08:51.130Z,101895.16
2019-01-11T03:10:53.194Z,101894.72
2019-01-11T03:12:54.772Z,101890.52
2019-01-11T03:14:56.156Z,101888.02
2019-01-11T03:16:57.529Z,101878.07
2019-01-11T03:18:59.196Z,101875.58
2019-01-11T03:21:00.674Z,101877.13
2019-01-11T03:23:02.053Z,101875.72
2019-01-11T03:25:06.708Z,101869.77
2019-01-11T03:27:08.081Z,101861.89
2019-01-11T03:29:09.461Z,101855.39
2019-01-11T03:31:13.074Z,101859.88
2019-01-11T03:33:14.464Z,101850.11
2019-01-11T03:35:17.065Z,101838.66
2019-01-11T03:37:18.638Z,101835.95
2019-01-11T03:39:20.023Z,101835.45
2019-01-11T03:41:21.490Z,101832.81
2019-01-11T03:43:22.942Z,101832.09
2019-01-11T03:45:24.629Z,101826.12
2019-01-11T03:47:26.102Z,101818.93
2019-01-11T03:49:27.650Z,101817.20
2019-01-11T03:51:29.045Z,101812.84
2019-01-11T03:53:30.478Z,101808.38
2019-01-11T03:55:31.864Z,101805.72
2019-01-11T03:57:33.253Z,101811.56
2019-01-11T03:59:34.671Z,101814.55
2019-01-11T04:01:36.061Z,101808.16
2019-01-11T04:03:37.442Z,101809.19
2019-01-11T04:05:38.875Z,101810.77
2019-01-11T04:07:40.266Z,101810.05
2019-01-11T04:09:41.631Z,101808.66
2019-01-11T04:11:43.231Z,101809.00
2019-01-11T04:13:44.621Z,101800.80
2019-01-11T04:15:46.005Z,101795.87
2019-01-11T04:17:53.411Z,101797.70
2019-01-11T04:20:01.720Z,101799.64
2019-01-11T04:22:08.806Z,101797.86
2019-01-11T04:24:10.504Z,101785.91
2019-01-11T04:26:11.893Z,101785.74
2019-01-11T04:28:13.389Z,101783.62
2019-01-11T04:30:15.973Z,101781.70
2019-01-11T04:32:17.358Z,101786.89
2019-01-11T04:34:19.031Z,101781.96
2019-01-11T04:36:20.471Z,101777.48
2019-01-11T04:38:21.901Z,101778.58
2019-01-11T04:40:23.321Z,101779.72
2019-01-11T04:42:24.789Z,101774.84
2019-01-11T04:44:26.263Z,101772.91
2019-01-11T04:46:27.646Z,101765.02
2019-01-11T04:48:29.625Z,101758.98
2019-01-11T04:50:31.125Z,101756.26
2019-01-11T04:52:32.500Z,101755.80
2019-01-11T04:54:33.927Z,101752.09
2019-01-11T04:56:35.318Z,101749.69
2019-01-11T04:58:36.708Z,101742.58
2019-01-11T05:00:38.397Z,101735.30
2019-01-11T05:02:39.785Z,101728.84
2019-01-11T05:04:41.214Z,101733.20
2019-01-11T05:06:42.627Z,101729.59
2019-01-11T05:08:44.021Z,101718.94
2019-01-11T05:10:45.441Z,101718.08
2019-01-11T05:12:47.047Z,101716.52
2019-01-11T05:14:48.553Z,101719.77
2019-01-11T05:16:49.943Z,101713.11
2019-01-11T05:18:51.337Z,101709.18
2019-01-11T05:20:52.712Z,101710.33
2019-01-11T05:22:54.098Z,101703.64
2019-01-11T05:24:55.515Z,101698.29
2019-01-11T05:26:56.893Z,101695.14
2019-01-11T05:28:58.269Z,101697.56
2019-01-11T05:30:59.772Z,101694.96
2019-01-11T05:33:01.177Z,101695.47
2019-01-11T05:35:04.859Z,101694.53
2019-01-11T05:37:06.373Z,101691.56
2019-01-11T05:39:07.765Z,101689.63
2019-01-11T05:41:09.186Z,101681.41
2019-01-11T05:43:10.567Z,101683.16
2019-01-11T05:45:12.162Z,101677.72
2019-01-11T05:47:15.632Z,101677.52
2019-01-11T05:49:17.005Z,101673.46
2019-01-11T05:51:18.459Z,101667.16
2019-01-11T05:53:20.086Z,101670.40
2019-01-11T05:55:23.630Z,101668.94
2019-01-11T05:57:25.032Z,101671.50
2019-01-11T05:59:26.401Z,101661.78
2019-01-11T06:01:27.958Z,101664.04
2019-01-11T06:03:29.374Z,101663.39
2019-01-11T06:05:30.767Z,101658.81
2019-01-11T06:07:32.282Z,101656.80
2019-01-11T06:09:33.649Z,101653.06
2019-01-11T06:11:35.037Z,101652.42
2019-01-11T06:13:36.471Z,101649.98
2019-01-11T06:15:38.199Z,101650.49
2019-01-11T06:17:39.676Z,101644.83
2019-01-11T06:19:41.090Z,101643.98
2019-01-11T06:21:42.492Z,101641.24
2019-01-11T06:23:43.912Z,101640.11
2019-01-11T06:25:45.436Z,101646.10
2019-01-11T06:27:46.884Z,101641.94
2019-01-11T06:29:48.564Z,101640.66
2019-01-11T06:31:49.934Z,101642.70
2019-01-11T06:33:51.332Z,101643.17
2019-01-11T06:35:52.846Z,101639.98
2019-01-11T06:37:54.263Z,101634.30
2019-01-11T06:39:55.697Z,101630.45
2019-01-11T06:41:58.982Z,101627.80
2019-01-11T06:44:00.356Z,101626.69
2019-01-11T06:46:01.783Z,101626.23
2019-01-11T06:48:06.070Z,101627.38
2019-01-11T06:50:12.638Z,101627.22
2019-01-11T06:52:14.254Z,101623.41
2019-01-11T06:54:15.650Z,101625.98
2019-01-11T06:56:17.128Z,101617.44
2019-01-11T06:58:18.644Z,101617.11
2019-01-11T07:00:20.126Z,101616.48
2019-01-11T07:02:22.432Z,101611.62
2019-01-11T07:04:23.903Z,101610.27
2019-01-11T07:06:25.338Z,101608.39
2019-01-11T07:08:27.022Z,101608.53
2019-01-11T07:10:28.403Z,101612.41
2019-01-11T07:12:29.799Z,101610.33
2019-01-11T07:14:31.200Z,101602.53
2019-01-11T07:16:32.571Z,101596.23
2019-01-11T07:18:33.974Z,101602.84
2019-01-11T07:20:35.344Z,101600.10
2019-01-11T07:22:36.727Z,101603.51
2019-01-11T07:24:38.140Z,101607.63
2019-01-11T07:26:39.501Z,101597.38
2019-01-11T07:28:40.873Z,101601.28
2019-01-11T07:30:44.198Z,101605.12
2019-01-11T07:32:45.586Z,101604.95
2019-01-11T07:34:46.973Z,101595.74
2019-01-11T07:36:48.377Z,101597.73
2019-01-11T07:38:49.763Z,101604.20
2019-01-11T07:40:51.127Z,101597.67
2019-01-11T07:42:52.549Z,101596.07
2019-01-11T07:44:53.925Z,101593.84
2019-01-11T07:46:55.807Z,101594.62
2019-01-11T07:48:57.217Z,101584.92
2019-01-11T07:50:58.569Z,101580.17
2019-01-11T07:52:59.957Z,101569.66
2019-01-11T07:55:01.464Z,101575.18
2019-01-11T07:57:03.055Z,101574.88
2019-01-11T07:59:04.581Z,101574.19
2019-01-11T08:01:06.494Z,101571.13
2019-01-11T08:03:07.859Z,101563.55
2019-01-11T08:05:09.469Z,101560.66
2019-01-11T08:07:10.824Z,101568.41
2019-01-11T08:09:12.314Z,101573.31
2019-01-11T08:11:13.925Z,101574.62
2019-01-11T08:13:15.314Z,101572.70
2019-01-11T08:15:17.094Z,101578.49
2019-01-11T08:17:18.743Z,101572.21
2019-01-11T08:19:20.125Z,101575.06
2019-01-11T08:21:21.508Z,101563.41
2019-01-11T08:23:22.929Z,101562.79
2019-01-11T08:25:24.313Z,101558.23
2019-01-11T08:27:25.801Z,101562.80
2019-01-11T08:29:27.231Z,101565.25
2019-01-11T08:31:34.558Z,101564.42
2019-01-11T08:33:32.110Z,101560.52
2019-01-11T08:35:33.488Z,101560.84
2019-01-11T08:37:35.026Z,101556.31
2019-01-11T08:39:36.409Z,101549.70
2019-01-11T08:41:37.822Z,101541.92
2019-01-11T08:43:39.405Z,101550.19
2019-01-11T08:45:40.825Z,101544.83
2019-01-11T08:47:42.196Z,101535.41
2019-01-11T08:49:43.584Z,101537.41
2019-01-11T08:51:45.018Z,101535.63
2019-01-11T08:53:46.395Z,101531.53
2019-01-11T08:55:47.778Z,101532.66
2019-01-11T08:57:49.199Z,101534.16
2019-01-11T08:59:50.610Z,101531.08
2019-01-11T09:01:51.990Z,101522.16
2019-01-11T09:03:53.423Z,101528.35
2019-01-11T09:05:54.795Z,101529.64
2019-01-11T09:07:56.208Z,101530.45
2019-01-11T09:09:57.854Z,101533.02
2019-01-11T09:11:59.229Z,101527.22
2019-01-11T09:14:00.928Z,101528.16
2019-01-11T09:16:03.125Z,101527.55
2019-01-11T09:18:12.039Z,101524.13
2019-01-11T09:20:13.551Z,101512.47
2019-01-11T09:22:15.204Z,101513.10
2019-01-11T09:24:16.582Z,101505.66
2019-01-11T09:26:17.977Z,101508.42
2019-01-11T09:28:19.394Z,101508.77
2019-01-11T09:30:20.777Z,101511.98
2019-01-11T09:32:22.745Z,101508.92
2019-01-11T09:34:24.185Z,101502.75
2019-01-11T09:36:25.578Z,101496.27
2019-01-11T09:38:27.001Z,101495.95
2019-01-11T09:40:28.454Z,101494.00
2019-01-11T09:42:29.869Z,101486.05
2019-01-11T09:44:31.234Z,101493.98
2019-01-11T09:46:32.650Z,101490.91
2019-01-11T09:48:34.016Z,101486.08
2019-01-11T09:50:35.408Z,101487.53
2019-01-11T09:52:36.816Z,101488.66
2019-01-11T09:54:38.214Z,101477.48
2019-01-11T09:56:39.611Z,101467.77
2019-01-11T09:58:41.003Z,101467.59
2019-01-11T10:00:43.122Z,101457.89
2019-01-11T10:02:46.047Z,101465.00
2019-01-11T10:04:47.426Z,101461.61
2019-01-11T10:06:53.365Z,101467.11
2019-01-11T10:08:54.785Z,101467.11
2019-01-11T10:10:56.163Z,101464.70
2019-01-11T10:12:57.534Z,101455.13
2019-01-11T10:14:58.947Z,101452.22
2019-01-11T10:17:00.368Z,101453.19
2019-01-11T10:19:01.754Z,101450.09
2019-01-11T10:21:03.334Z,101441.19
2019-01-11T10:23:04.942Z,101436.48
2019-01-11T10:25:10.087Z,101433.91
2019-01-11T10:27:11.495Z,101429.05
2019-01-11T10:29:12.871Z,101424.18
2019-01-11T10:31:14.252Z,101421.75
2019-01-11T10:33:15.655Z,101417.21
2019-01-11T10:35:17.028Z,101413.14
2019-01-11T10:37:18.422Z,101410.88
2019-01-11T10:39:20.094Z,101408.61
2019-01-11T10:41:21.470Z,101401.00
2019-01-11T10:43:22.969Z,101399.04
2019-01-11T10:45:24.350Z,101399.69
2019-01-11T10:47:25.731Z,101393.03
2019-01-11T10:49:27.136Z,101392.41
2019-01-11T10:51:28.554Z,101383.81
2019-01-11T10:53:29.956Z,101385.91
2019-01-11T10:55:31.321Z,101380.24
2019-01-11T10:57:32.746Z,101372.42
2019-01-11T10:59:34.208Z,101364.81
2019-01-11T11:01:35.697Z,101365.78
2019-01-11T11:03:37.302Z,101368.06
2019-01-11T11:05:38.681Z,101356.06
2019-01-11T11:07:40.065Z,101359.95
2019-01-11T11:09:41.492Z,101354.73
2019-01-11T11:11:42.869Z,101359.30
2019-01-11T11:13:44.758Z,101353.10
2019-01-11T11:15:47.580Z,101344.36
2019-01-11T11:17:48.963Z,101335.91
2019-01-11T11:19:50.324Z,101341.94
2019-01-11T11:21:51.737Z,101337.88
2019-01-11T11:23:54.152Z,101327.50
2019-01-11T11:25:55.604Z,101322.91
2019-01-11T11:27:57.254Z,101325.17
2019-01-11T11:29:58.635Z,101329.86
2019-01-11T11:32:00.037Z,101325.48
2019-01-11T11:34:01.460Z,101319.45
2019-01-11T11:36:03.553Z,101316.55
2019-01-11T11:38:05.031Z,101317.48
2019-01-11T11:40:08.095Z,101305.79
2019-01-11T11:42:09.498Z,101296.36
2019-01-11T11:44:10.999Z,101297.69
2019-01-11T11:46:12.526Z,101293.63
2019-01-11T11:48:13.954Z,101279.97
2019-01-11T11:50:15.379Z,101283.05
2019-01-11T11:52:16.797Z,101275.62
2019-01-11T11:54:18.193Z,101271.06
2019-01-11T11:56:19.970Z,101268.72
2019-01-11T11:58:21.375Z,101265.30
2019-01-11T12:00:23.760Z,101265.13
2019-01-11T12:02:25.153Z,101267.94
2019-01-11T12:04:26.627Z,101261.86
2019-01-11T12:06:28.001Z,101260.42
2019-01-11T12:08:29.401Z,101258.78
2019-01-11T12:10:30.835Z,101253.13
2019-01-11T12:12:32.254Z,101242.99
2019-01-11T12:14:33.654Z,101239.94
2019-01-11T12:16:35.056Z,101238.13
2019-01-11T12:18:36.439Z,101229.06
2019-01-11T12:20:37.923Z,101224.03
2019-01-11T12:22:39.951Z,101222.20
2019-01-11T12:24:41.457Z,101222.84
2019-01-11T12:26:43.088Z,101213.11
2019-01-11T12:28:44.472Z,101211.14
2019-01-11T12:30:45.860Z,101209.36
2019-01-11T12:32:47.332Z,101205.77
2019-01-11T12:34:48.821Z,101197.62
2019-01-11T12:36:50.196Z,101200.55
2019-01-11T12:38:51.619Z,101197.45
2019-01-11T12:40:52.999Z,101191.92
2019-01-11T12:42:54.389Z,101185.38
2019-01-11T12:44:55.963Z,101185.34
2019-01-11T12:46:57.356Z,101174.11
2019-01-11T12:48:58.735Z,101170.84
2019-01-11T12:51:00.183Z,101176.98
2019-01-11T12:53:01.575Z,101169.95
2019-01-11T12:55:04.063Z,101174.47
2019-01-11T12:57:05.518Z,101179.37
2019-01-11T12:59:06.902Z,101173.47
2019-01-11T13:01:08.396Z,101170.16
2019-01-11T13:03:09.907Z,101163.66
2019-01-11T13:05:17.186Z,101159.41
2019-01-11T13:07:18.604Z,101157.46
2019-01-11T13:09:20.154Z,101150.64
2019-01-11T13:11:21.543Z,101151.72
2019-01-11T13:13:22.931Z,101146.52
2019-01-11T13:15:24.359Z,101145.34
2019-01-11T13:17:25.764Z,101145.48
2019-01-11T13:19:27.159Z,101133.45
2019-01-11T13:21:28.682Z,101138.27
2019-01-11T13:23:30.110Z,101133.84
2019-01-11T13:25:32.245Z,101145.51
2019-01-11T13:27:33.903Z,101126.95
2019-01-11T13:29:35.337Z,101126.36
2019-01-11T13:31:36.793Z,101119.33
2019-01-11T13:33:38.167Z,101117.31
2019-01-11T13:35:39.557Z,101112.07
2019-01-11T13:37:41.323Z,101113.53
2019-01-11T13:39:42.725Z,101113.62
2019-01-11T13:41:44.098Z,101107.89
2019-01-11T13:43:45.741Z,101107.28
2019-01-11T13:45:47.226Z,101105.94
2019-01-11T13:47:48.602Z,101105.58
2019-01-11T13:49:50.048Z,101107.33
2019-01-11T13:51:51.440Z,101103.91
2019-01-11T13:53:52.825Z,101101.92
2019-01-11T13:55:54.237Z,101096.02
2019-01-11T13:57:55.621Z,101099.03
2019-01-11T13:59:57.071Z,101101.15
2019-01-11T14:01:58.451Z,101092.20
2019-01-11T14:03:59.855Z,101098.17
2019-01-11T14:06:01.324Z,101093.25
2019-01-11T14:08:02.916Z,101095.17
2019-01-11T14:10:05.325Z,101100.05
2019-01-11T14:12:06.756Z,101086.34
2019-01-11T14:14:08.143Z,101084.38
2019-01-11T14:16:09.609Z,101086.58
2019-01-11T14:18:11.123Z,101083.61
2019-01-11T14:20:12.703Z,101083.03
2019-01-11T14:22:14.165Z,101084.45
2019-01-11T14:24:15.542Z,101074.80
2019-01-11T14:26:16.919Z,101072.36
2019-01-11T14:28:18.381Z,101083.27
2019-01-11T14:30:20.213Z,101080.02
2019-01-11T14:32:21.601Z,101078.33
2019-01-11T14:34:22.970Z,101083.55
2019-01-11T14:36:24.735Z,101085.98
2019-01-11T14:38:26.166Z,101081.42
2019-01-11T14:40:29.453Z,101083.22
2019-01-11T14:42:31.293Z,101080.08
2019-01-11T14:44:32.667Z,101082.52
2019-01-11T14:46:34.037Z,101078.63
2019-01-11T14:48:35.490Z,101084.30
2019-01-11T14:50:36.892Z,101085.08
2019-01-11T14:52:38.335Z,101080.97
2019-01-11T14:54:39.713Z,101082.47
2019-01-11T14:56:41.199Z,101078.36
2019-01-11T14:58:42.648Z,101080.44
2019-01-11T15:00:44.044Z,101076.48
2019-01-11T15:02:45.469Z,101078.92
2019-01-11T15:04:47.190Z,101073.11
2019-01-11T15:06:48.625Z,101072.41
2019-01-11T15:08:50.005Z,101071.75
2019-01-11T15:10:51.455Z,101071.88
2019-01-11T15:12:52.824Z,101062.27
2019-01-11T15:14:54.189Z,101059.11
2019-01-11T15:16:55.841Z,101060.70
2019-01-11T15:18:57.228Z,101054.96
2019-01-11T15:20:58.620Z,101061.58
2019-01-11T15:23:00.055Z,101064.95
2019-01-11T15:25:01.453Z,101056.85
2019-01-11T15:27:03.043Z,101052.13
2019-01-11T15:29:04.696Z,101050.89
2019-01-11T15:31:06.105Z,101049.05
2019-01-11T15:33:07.864Z,101041.23
2019-01-11T15:35:09.539Z,101037.39
2019-01-11T15:37:11.205Z,101039.33
2019-01-11T15:39:13.074Z,101050.09
2019-01-11T15:41:14.695Z,101036.84
2019-01-11T15:43:16.248Z,101042.93
2019-01-11T15:45:17.946Z,101037.05
2019-01-11T15:47:19.617Z,101034.90
2019-01-11T15:49:21.229Z,101031.84
2019-01-11T15:51:23.117Z,101022.62
2019-01-11T15:53:32.642Z,101024.84
2019-01-11T15:55:34.371Z,101026.41
2019-01-11T15:57:41.862Z,101021.09
2019-01-11T16:00:01.422Z,101021.05
2019-01-11T16:02:03.109Z,101019.25
2019-01-11T16:04:05.227Z,101018.93
2019-01-11T16:06:28.010Z,101014.30
2019-01-11T16:08:29.509Z,101010.59
2019-01-11T16:10:31.616Z,101003.19
2019-01-11T16:12:33.192Z,100998.59
2019-01-11T16:15:07.229Z,100998.25
2019-01-11T16:17:14.448Z,101001.72
2019-01-11T16:19:16.274Z,101000.85
2019-01-11T16:21:18.689Z,100993.84
2019-01-11T16:23:20.291Z,100992.31
2019-01-11T16:25:21.678Z,100992.98
2019-01-11T16:27:23.072Z,100995.79
2019-01-11T16:29:24.955Z,100994.53
2019-01-11T16:31:26.389Z,100995.80
2019-01-11T16:33:27.830Z,100989.21
2019-01-11T16:35:29.567Z,100990.45
2019-01-11T16:37:30.965Z,100981.44
2019-01-11T16:39:32.337Z,100980.95
2019-01-11T16:41:33.966Z,100985.66
2019-01-11T16:43:35.365Z,100986.23
2019-01-11T16:45:36.848Z,100986.23
2019-01-11T16:47:38.306Z,100983.42
2019-01-11T16:49:39.706Z,100978.52
2019-01-11T16:51:41.202Z,100986.02
2019-01-11T16:53:42.658Z,100985.48
2019-01-11T16:55:44.060Z,100982.79
2019-01-11T16:57:45.449Z,100985.55
2019-01-11T16:59:46.897Z,100982.15
2019-01-11T17:01:48.286Z,100984.36
2019-01-11T17:03:49.689Z,100985.98
2019-01-11T17:05:51.131Z,100985.45
2019-01-11T17:07:52.522Z,100985.55
2019-01-11T17:09:53.908Z,100992.59
2019-01-11T17:11:55.379Z,100996.67
2019-01-11T17:13:56.762Z,100997.09
2019-01-11T17:15:58.234Z,100996.42
2019-01-11T17:17:59.680Z,100989.52
2019-01-11T17:20:01.142Z,100999.01
2019-01-11T17:22:02.706Z,100994.27
2019-01-11T17:24:04.074Z,100994.69
2019-01-11T17:26:05.624Z,100991.50
2019-01-11T17:28:07.016Z,100995.84
2019-01-11T17:30:13.625Z,100992.84
2019-01-11T17:32:15.024Z,100995.88
2019-01-11T17:34:16.482Z,100995.48
2019-01-11T17:36:18.100Z,100998.91
2019-01-11T17:38:19.578Z,100997.52
2019-01-11T17:40:20.964Z,100996.53
2019-01-11T17:42:22.409Z,100998.80
2019-01-11T17:44:23.857Z,100998.34
2019-01-11T17:46:25.259Z,100997.78
2019-01-11T17:48:26.709Z,100994.50
2019-01-11T17:50:28.306Z,100994.77
2019-01-11T17:52:29.657Z,100995.75
2019-01-11T17:54:31.059Z,100995.45
2019-01-11T17:56:32.649Z,101003.21
2019-01-11T17:58:34.037Z,101001.35
2019-01-11T18:00:35.710Z,100992.75
2019-01-11T18:02:37.148Z,100994.84
2019-01-11T18:04:38.536Z,100995.00
2019-01-11T18:06:39.992Z,100995.27
2019-01-11T18:08:41.377Z,100994.62
2019-01-11T18:10:42.773Z,100995.38
2019-01-11T18:12:44.213Z,100993.80
2019-01-11T18:14:45.604Z,100998.53
2019-01-11T18:16:47.068Z,101003.70
2019-01-11T18:18:48.520Z,100992.22
2019-01-11T18:20:49.881Z,101002.84
2019-01-11T18:22:51.465Z,100995.89
2019-01-11T18:24:52.903Z,100996.79
2019-01-11T18:26:54.287Z,101007.11
2019-01-11T18:28:55.662Z,101006.23
2019-01-11T18:30:57.098Z,101001.95
2019-01-11T18:32:58.481Z,101011.91
2019-01-11T18:34:59.900Z,101008.89
2019-01-11T18:37:01.720Z,101008.15
2019-01-11T18:39:06.183Z,101012.66
2019-01-11T18:41:07.575Z,101012.97
2019-01-11T18:43:09.035Z,101017.81
2019-01-11T18:45:10.714Z,101015.45
2019-01-11T18:47:12.067Z,101015.92
2019-01-11T18:49:13.678Z,101018.62
2019-01-11T18:51:15.018Z,101017.31
2019-01-11T18:53:16.435Z,101012.56
2019-01-11T18:55:18.097Z,101012.18
2019-01-11T18:57:19.586Z,101006.21
2019-01-11T18:59:21.022Z,101018.09
2019-01-11T19:01:22.395Z,101009.74
2019-01-11T19:03:23.861Z,101015.56
2019-01-11T19:05:27.856Z,101017.72
2019-01-11T19:07:29.292Z,101015.44
2019-01-11T19:09:30.815Z,101020.73
2019-01-11T19:11:32.174Z,101023.27
2019-01-11T19:13:33.619Z,101021.71
2019-01-11T19:15:35.315Z,101019.84
2019-01-11T19:17:36.787Z,101019.84
2019-01-11T19:19:38.184Z,101018.84
2019-01-11T19:21:39.872Z,101019.19
2019-01-11T19:23:41.228Z,101017.54
2019-01-11T19:25:42.612Z,101027.11
2019-01-11T19:27:44.639Z,101026.60
2019-01-11T19:29:45.997Z,101026.61
2019-01-11T19:31:47.402Z,101023.75
2019-01-11T19:33:48.856Z,101024.56
2019-01-11T19:35:50.556Z,101025.12
2019-01-11T19:37:52.021Z,101031.62
2019-01-11T19:39:53.419Z,101026.13
2019-01-11T19:41:54.878Z,101032.59
2019-01-11T19:43:56.256Z,101027.33
2019-01-11T19:45:57.636Z,101029.56
2019-01-11T19:47:59.136Z,101035.34
2019-01-11T19:50:00.512Z,101036.16
2019-01-11T19:52:02.122Z,101032.06
2019-01-11T19:54:03.869Z,101032.67
2019-01-11T19:56:05.273Z,101037.28
2019-01-11T19:58:06.665Z,101041.36
2019-01-11T20:00:15.887Z,101037.30
2019-01-11T20:02:17.261Z,101045.05
2019-01-11T20:04:18.945Z,101039.75
2019-01-11T20:06:20.331Z,101035.44
2019-01-11T20:08:21.901Z,101035.67
2019-01-11T20:10:29.438Z,101034.84
2019-01-11T20:12:30.894Z,101039.48
2019-01-11T20:14:32.538Z,101041.06
2019-01-11T20:16:34.135Z,101041.19
2019-01-11T20:18:35.524Z,101041.74
2019-01-11T20:20:36.922Z,101045.74
2019-01-11T20:22:38.649Z,101045.43
2019-01-11T20:24:40.625Z,101048.70
2019-01-11T20:26:42.005Z,101045.00
2019-01-11T20:28:43.429Z,101040.55
2019-01-11T20:30:44.863Z,101044.27
2019-01-11T20:32:46.363Z,101042.20
2019-01-11T20:34:47.811Z,101048.49
2019-01-11T20:36:54.995Z,101043.78
2019-01-11T20:38:56.458Z,101045.97
2019-01-11T20:40:58.126Z,101044.27
2019-01-11T20:42:59.502Z,101052.75
2019-01-11T20:45:00.909Z,101056.49
2019-01-11T20:47:02.675Z,101056.08
2019-01-11T20:49:04.053Z,101054.30
2019-01-11T20:51:05.491Z,101052.91
2019-01-11T20:53:07.135Z,101052.62
2019-01-11T20:55:09.515Z,101050.13
2019-01-11T20:57:10.922Z,101054.70
2019-01-11T20:59:12.518Z,101051.06
2019-01-11T21:01:14.399Z,101055.76
2019-01-11T21:03:15.989Z,101056.69
2019-01-11T21:05:17.876Z,101056.86
2019-01-11T21:07:19.254Z,101055.97
2019-01-11T21:09:20.630Z,101060.58
2019-01-11T21:11:22.084Z,101054.98
2019-01-11T21:13:23.612Z,101054.01
2019-01-11T21:15:25.378Z,101055.00
2019-01-11T21:17:26.762Z,101062.30
2019-01-11T21:19:28.463Z,101060.59
2019-01-11T21:21:29.951Z,101060.81
2019-01-11T21:23:31.336Z,101056.58
2019-01-11T21:25:32.779Z,101060.77
2019-01-11T21:27:34.258Z,101061.10
2019-01-11T21:29:35.703Z,101057.70
2019-01-11T21:31:37.093Z,101055.39
2019-01-11T21:33:38.477Z,101058.27
2019-01-11T21:35:40.180Z,101055.25
2019-01-11T21:37:41.675Z,101058.53
2019-01-11T21:39:43.049Z,101063.09
2019-01-11T21:41:44.498Z,101069.69
2019-01-11T21:43:45.880Z,101069.17
2019-01-11T21:45:47.264Z,101067.73
2019-01-11T21:47:48.692Z,101066.42
2019-01-11T21:49:50.063Z,101066.00
2019-01-11T21:51:51.435Z,101064.37
2019-01-11T21:53:55.832Z,101067.30
2019-01-11T21:55:56.138Z,101066.80
2019-01-11T21:57:57.540Z,101071.33
2019-01-11T21:59:58.969Z,101070.33
2019-01-11T22:02:00.357Z,101071.55
2019-01-11T22:04:01.746Z,101069.91
2019-01-11T22:06:03.581Z,101068.34
2019-01-11T22:08:05.069Z,101066.58
2019-01-11T22:10:11.661Z,101076.00
2019-01-11T22:12:13.121Z,101076.48
2019-01-11T22:14:14.556Z,101079.95
2019-01-11T22:16:15.939Z,101083.69
2019-01-11T22:18:17.400Z,101082.00
2019-01-11T22:20:18.876Z,101087.21
2019-01-11T22:22:20.305Z,101090.98
2019-01-11T22:24:21.751Z,101092.28
2019-01-11T22:26:23.347Z,101092.36
2019-01-11T22:28:24.725Z,101090.34
2019-01-11T22:30:30.155Z,101094.11
2019-01-11T22:32:29.745Z,101089.52
2019-01-11T22:34:31.132Z,101090.25
2019-01-11T22:36:32.514Z,101091.80
2019-01-11T22:38:33.959Z,101089.38
2019-01-11T22:40:35.336Z,101083.23
2019-01-11T22:42:36.731Z,101083.55
2019-01-11T22:44:38.406Z,101081.52
2019-01-11T22:46:39.824Z,101086.75
2019-01-11T22:48:41.213Z,101085.48
2019-01-11T22:50:42.655Z,101090.18
2019-01-11T22:52:44.266Z,101081.70
2019-01-11T22:54:45.661Z,101080.73
2019-01-11T22:56:47.121Z,101081.99
2019-01-11T22:58:48.810Z,101083.89
2019-01-11T23:01:10.997Z,101079.09
2019-01-11T23:03:26.630Z,101078.91
2019-01-11T23:05:28.014Z,101082.97
2019-01-11T23:07:31.903Z,101077.89
2019-01-11T23:09:38.329Z,101083.72